createdAt,value
2022-09-15T00:02:24.673Z,97.19
2022-09-15T00:04:51.359Z,98.09
2022-09-15T00:07:17.857Z,97.88
2022-09-15T00:09:44.353Z,98.14
2022-09-15T00:12:10.967Z,98.41
2022-09-15T00:14:37.470Z,98.00
2022-09-15T00:17:04.311Z,98.30
2022-09-15T00:19:30.863Z,98.96
2022-09-15T00:21:57.356Z,98.16
2022-09-15T00:24:23.840Z,95.93
2022-09-15T00:26:50.649Z,96.63
2022-09-15T00:29:17.172Z,94.71
2022-09-15T00:31:43.727Z,96.57
2022-09-15T00:34:12.676Z,97.09
2022-09-15T00:36:39.221Z,97.29
2022-09-15T00:39:05.748Z,97.03
2022-09-15T00:41:32.696Z,97.64
2022-09-15T00:44:02.984Z,97.88
2022-09-15T00:46:38.555Z,98.04
2022-09-15T00:49:09.468Z,98.10
2022-09-15T00:51:50.899Z,97.13
2022-09-15T00:54:26.630Z,96.27
2022-09-15T00:56:56.549Z,97.80
2022-09-15T00:59:26.403Z,97.53
2022-09-15T01:02:01.080Z,95.31
2022-09-15T01:04:27.666Z,97.51
2022-09-15T01:06:59.647Z,96.60
2022-09-15T01:09:49.104Z,97.53
2022-09-15T01:12:16.452Z,98.49
2022-09-15T01:14:42.973Z,99.50
2022-09-15T01:17:34.436Z,99.09
2022-09-15T01:20:11.830Z,98.61
2022-09-15T01:23:26.771Z,98.46
2022-09-15T01:25:53.240Z,96.33
2022-09-15T01:28:53.579Z,96.61
2022-09-15T01:32:17.440Z,96.77
2022-09-15T01:35:00.740Z,96.71
2022-09-15T01:37:34.390Z,96.63
2022-09-15T01:40:02.592Z,95.62
2022-09-15T01:42:32.209Z,96.15
2022-09-15T01:45:05.114Z,94.84
2022-09-15T01:47:34.134Z,94.46
2022-09-15T01:50:10.152Z,97.58
2022-09-15T01:52:40.902Z,96.48
2022-09-15T01:55:14.392Z,97.78
2022-09-15T01:57:40.948Z,97.43
2022-09-15T02:00:08.407Z,97.79
2022-09-15T02:02:49.561Z,99.94
2022-09-15T02:05:38.207Z,99.67
2022-09-15T02:08:27.775Z,97.80
2022-09-15T02:11:12.818Z,99.73
2022-09-15T02:13:48.690Z,100.00
2022-09-15T02:16:24.560Z,100.00
2022-09-15T02:19:08.818Z,100.00
2022-09-15T02:22:07.657Z,100.00
2022-09-15T02:24:41.000Z,100.00
2022-09-15T02:27:13.135Z,100.00
2022-09-15T02:29:42.174Z,100.00
2022-09-15T02:32:09.873Z,100.00
2022-09-15T02:34:41.454Z,100.00
2022-09-15T02:37:09.678Z,99.79
2022-09-15T02:39:42.268Z,98.82
2022-09-15T02:42:09.408Z,99.10
2022-09-15T02:44:36.410Z,98.48
2022-09-15T02:47:03.860Z,99.23
2022-09-15T02:49:30.631Z,98.92
2022-09-15T02:51:57.147Z,99.75
2022-09-15T02:54:23.632Z,100.00
2022-09-15T02:56:50.382Z,99.99
2022-09-15T02:59:16.861Z,97.80
2022-09-15T03:01:44.903Z,98.91
2022-09-15T03:04:11.609Z,98.91
2022-09-15T03:06:38.103Z,98.33
2022-09-15T03:09:07.438Z,97.42
2022-09-15T03:11:35.409Z,98.67
2022-09-15T03:14:04.740Z,97.81
2022-09-15T03:16:34.417Z,97.39
2022-09-15T03:19:01.347Z,96.80
2022-09-15T03:21:29.603Z,96.82
2022-09-15T03:23:57.947Z,96.69
2022-09-15T03:26:24.790Z,97.09
2022-09-15T03:28:51.281Z,96.84
2022-09-15T03:31:17.843Z,96.88
2022-09-15T03:33:44.343Z,96.85
2022-09-15T03:36:11.099Z,95.41
2022-09-15T03:38:37.997Z,95.28
2022-09-15T03:41:10.527Z,95.92
2022-09-15T03:43:37.953Z,95.88
2022-09-15T03:46:07.067Z,95.42
2022-09-15T03:48:35.459Z,95.93
2022-09-15T03:51:03.751Z,95.91
2022-09-15T03:53:35.398Z,97.51
2022-09-15T03:56:31.211Z,95.55
2022-09-15T03:58:59.040Z,96.47
2022-09-15T04:01:26.116Z,97.24
2022-09-15T04:03:52.883Z,96.02
2022-09-15T04:06:22.092Z,96.75
2022-09-15T04:08:52.811Z,97.77
2022-09-15T04:11:21.102Z,97.79
2022-09-15T04:13:48.559Z,97.88
2022-09-15T04:16:18.454Z,98.74
2022-09-15T04:18:45.960Z,98.72
2022-09-15T04:21:15.043Z,99.02
2022-09-15T04:23:43.139Z,98.96
2022-09-15T04:26:19.169Z,98.86
2022-09-15T04:28:45.661Z,98.92
2022-09-15T04:31:14.243Z,97.64
2022-09-15T04:33:41.357Z,98.49
2022-09-15T04:36:11.172Z,98.66
2022-09-15T04:38:38.737Z,97.86
2022-09-15T04:41:06.750Z,97.87
2022-09-15T04:43:34.223Z,97.83
2022-09-15T04:46:00.964Z,97.79
2022-09-15T04:48:28.306Z,98.03
2022-09-15T04:50:54.966Z,98.47
2022-09-15T04:53:21.686Z,96.48
2022-09-15T04:55:48.314Z,97.42
2022-09-15T04:58:14.787Z,97.70
2022-09-15T05:00:45.711Z,97.80
2022-09-15T05:03:14.166Z,96.82
2022-09-15T05:05:41.441Z,97.16
2022-09-15T05:08:08.153Z,97.45
2022-09-15T05:10:34.944Z,96.59
2022-09-15T05:13:01.419Z,96.97
2022-09-15T05:15:27.944Z,96.97
2022-09-15T05:17:54.439Z,96.74
2022-09-15T05:20:20.982Z,96.59
2022-09-15T05:22:47.492Z,96.14
2022-09-15T05:25:14.148Z,94.89
2022-09-15T05:27:40.629Z,93.76
2022-09-15T05:30:35.921Z,94.04
2022-09-15T05:32:54.547Z,94.82
2022-09-15T05:35:21.069Z,94.64
2022-09-15T05:37:47.571Z,93.81
2022-09-15T05:40:15.243Z,92.87
2022-09-15T05:42:41.747Z,92.26
2022-09-15T05:45:08.950Z,92.39
2022-09-15T05:47:35.418Z,92.78
2022-09-15T05:50:01.926Z,92.37
2022-09-15T05:52:28.444Z,92.15
2022-09-15T05:54:58.994Z,91.98
2022-09-15T05:57:25.885Z,92.27
2022-09-15T05:59:52.444Z,91.27
2022-09-15T06:02:19.041Z,90.56
2022-09-15T06:04:45.611Z,90.52
2022-09-15T06:07:12.384Z,89.75
2022-09-15T06:09:39.373Z,89.44
2022-09-15T06:12:06.068Z,88.35
2022-09-15T06:14:32.818Z,87.80
2022-09-15T06:16:59.304Z,86.13
2022-09-15T06:19:25.753Z,85.13
2022-09-15T06:21:52.735Z,84.95
2022-09-15T06:24:19.440Z,85.93
2022-09-15T06:26:45.955Z,85.37
2022-09-15T06:29:12.983Z,85.50
2022-09-15T06:31:39.583Z,86.43
2022-09-15T06:34:06.676Z,86.98
2022-09-15T06:36:33.180Z,88.06
2022-09-15T06:39:00.079Z,88.37
2022-09-15T06:41:33.051Z,89.21
2022-09-15T06:44:13.820Z,89.68
2022-09-15T06:46:40.315Z,89.91
2022-09-15T06:49:07.085Z,89.34
2022-09-15T06:51:35.554Z,88.76
2022-09-15T06:54:03.013Z,90.10
2022-09-15T06:56:30.949Z,90.29
2022-09-15T06:59:00.081Z,89.45
2022-09-15T07:01:29.417Z,88.26
2022-09-15T07:03:58.122Z,87.43
2022-09-15T07:06:27.259Z,86.74
2022-09-15T07:08:53.940Z,85.51
2022-09-15T07:11:20.596Z,84.46
2022-09-15T07:13:50.395Z,83.39
2022-09-15T07:16:19.074Z,82.51
2022-09-15T07:18:46.623Z,80.79
2022-09-15T07:21:16.647Z,76.62
2022-09-15T07:23:44.258Z,76.28
2022-09-15T07:26:13.907Z,74.95
2022-09-15T07:28:43.733Z,72.47
2022-09-15T07:31:12.507Z,71.27
2022-09-15T07:33:39.300Z,71.36
2022-09-15T07:36:07.890Z,73.70
2022-09-15T07:38:40.236Z,64.00
2022-09-15T07:41:14.543Z,68.80
2022-09-15T07:43:45.650Z,69.47
2022-09-15T07:46:12.224Z,70.76
2022-09-15T07:48:38.904Z,70.57
2022-09-15T07:51:05.611Z,70.82
2022-09-15T07:53:32.763Z,71.56
2022-09-15T07:55:59.208Z,71.53
2022-09-15T07:58:25.747Z,73.46
2022-09-15T08:00:52.545Z,71.59
2022-09-15T08:03:19.164Z,69.15
2022-09-15T08:05:46.235Z,70.86
2022-09-15T08:08:12.999Z,66.69
2022-09-15T08:10:41.728Z,66.35
2022-09-15T08:13:08.472Z,70.25
2022-09-15T08:15:38.713Z,67.04
2022-09-15T08:18:05.887Z,70.21
2022-09-15T08:20:32.853Z,65.45
2022-09-15T08:22:59.481Z,64.18
2022-09-15T08:25:26.057Z,59.87
2022-09-15T08:27:54.431Z,55.77
2022-09-15T08:30:21.867Z,68.09
2022-09-15T08:32:48.860Z,63.21
2022-09-15T08:35:15.927Z,66.60
2022-09-15T08:37:42.667Z,66.43
2022-09-15T08:40:22.452Z,61.07
2022-09-15T08:42:52.124Z,59.06
2022-09-15T08:45:28.606Z,46.79
2022-09-15T08:48:00.220Z,59.98
2022-09-15T08:50:40.899Z,46.98
2022-09-15T08:53:19.943Z,45.93
2022-09-15T08:55:52.574Z,48.71
2022-09-15T08:58:25.298Z,60.50
2022-09-15T09:01:12.062Z,43.41
2022-09-15T09:03:58.916Z,51.50
2022-09-15T09:07:03.751Z,48.91
2022-09-15T09:09:44.989Z,52.80
2022-09-15T09:12:29.309Z,55.20
2022-09-15T09:15:27.077Z,40.28
2022-09-15T09:18:35.321Z,46.31
2022-09-15T09:21:16.923Z,49.22
2022-09-15T09:23:49.834Z,45.39
2022-09-15T09:26:16.597Z,56.14
2022-09-15T09:28:50.192Z,50.78
2022-09-15T09:31:21.376Z,46.45
2022-09-15T09:33:56.977Z,48.14
2022-09-15T09:36:23.676Z,42.96
2022-09-15T09:38:50.958Z,48.17
2022-09-15T09:41:19.252Z,41.36
2022-09-15T09:43:48.893Z,43.87
2022-09-15T09:46:18.051Z,47.95
2022-09-15T09:48:52.224Z,45.22
2022-09-15T09:51:39.206Z,41.68
2022-09-15T09:54:16.451Z,41.37
2022-09-15T09:56:44.611Z,48.90
2022-09-15T09:59:44.839Z,41.34
2022-09-15T10:02:11.285Z,45.97
2022-09-15T10:04:58.703Z,42.96
2022-09-15T10:07:26.761Z,40.46
2022-09-15T10:09:59.677Z,42.05
2022-09-15T10:12:32.793Z,46.96
2022-09-15T10:15:05.192Z,41.96
2022-09-15T10:17:52.232Z,42.53
2022-09-15T10:20:25.451Z,44.00
2022-09-15T10:22:52.545Z,42.36
2022-09-15T10:25:22.058Z,43.06
2022-09-15T10:28:14.739Z,41.64
2022-09-15T10:30:59.825Z,42.08
2022-09-15T10:33:29.047Z,46.19
2022-09-15T10:36:02.111Z,45.05
2022-09-15T10:38:40.695Z,44.46
2022-09-15T10:41:28.772Z,41.78
2022-09-15T10:44:32.961Z,42.24
2022-09-15T10:47:35.603Z,42.61
2022-09-15T10:50:34.481Z,42.87
2022-09-15T10:53:22.300Z,44.59
2022-09-15T10:56:18.263Z,44.40
2022-09-15T10:58:56.886Z,45.91
2022-09-15T11:01:29.667Z,44.40
2022-09-15T11:04:20.891Z,45.26
2022-09-15T11:07:07.699Z,44.44
2022-09-15T11:09:57.444Z,43.22
2022-09-15T11:12:49.540Z,44.26
2022-09-15T11:15:35.842Z,43.68
2022-09-15T11:18:41.488Z,42.50
2022-09-15T11:21:24.821Z,43.64
2022-09-15T11:24:03.624Z,44.12
2022-09-15T11:26:37.003Z,43.56
2022-09-15T11:29:11.129Z,42.30
2022-09-15T11:31:41.980Z,43.75
2022-09-15T11:34:23.380Z,44.70
2022-09-15T11:36:49.868Z,44.95
2022-09-15T11:39:33.190Z,45.29
2022-09-15T11:42:19.183Z,45.15
2022-09-15T11:44:47.951Z,45.91
2022-09-15T11:47:26.257Z,45.34
2022-09-15T11:50:11.021Z,44.43
2022-09-15T11:52:52.212Z,45.74
2022-09-15T11:55:54.258Z,45.49
2022-09-15T11:58:32.969Z,46.12
2022-09-15T12:01:02.570Z,46.93
2022-09-15T12:03:48.302Z,45.96
2022-09-15T12:06:29.736Z,46.17
2022-09-15T12:09:02.118Z,46.95
2022-09-15T12:11:32.167Z,47.09
2022-09-15T12:13:59.953Z,47.47
2022-09-15T12:16:28.090Z,47.04
2022-09-15T12:18:56.473Z,46.81
2022-09-15T12:21:25.979Z,46.63
2022-09-15T12:24:23.436Z,46.13
2022-09-15T12:26:50.006Z,44.97
2022-09-15T12:29:22.456Z,44.91
2022-09-15T12:31:49.029Z,45.72
2022-09-15T12:34:37.014Z,45.05
2022-09-15T12:37:10.530Z,44.66
2022-09-15T12:39:42.275Z,43.71
2022-09-15T12:42:17.989Z,43.39
2022-09-15T12:44:49.961Z,44.18
2022-09-15T12:47:31.759Z,43.32
2022-09-15T12:50:07.231Z,44.95
2022-09-15T12:52:44.949Z,43.54
2022-09-15T12:55:19.061Z,43.90
2022-09-15T12:57:52.475Z,45.14
2022-09-15T13:00:32.677Z,44.92
2022-09-15T13:03:00.462Z,45.68
2022-09-15T13:05:41.976Z,45.16
2022-09-15T13:08:15.312Z,45.36
2022-09-15T13:10:59.518Z,45.99
2022-09-15T13:13:43.792Z,46.72
2022-09-15T13:16:33.706Z,47.61
2022-09-15T13:19:08.928Z,47.84
2022-09-15T13:21:38.391Z,47.93
2022-09-15T13:24:08.406Z,48.13
2022-09-15T13:26:37.501Z,47.70
2022-09-15T13:29:06.354Z,48.04
2022-09-15T13:31:48.122Z,47.99
2022-09-15T13:38:06.935Z,48.35
2022-09-15T13:41:14.440Z,48.40
2022-09-15T13:43:47.449Z,49.07
2022-09-15T13:46:43.508Z,48.86
2022-09-15T13:49:37.318Z,49.43
2022-09-15T13:52:18.705Z,49.79
2022-09-15T13:55:17.355Z,49.97
2022-09-15T14:00:44.195Z,49.22
2022-09-15T14:03:16.345Z,49.67
2022-09-15T14:05:44.703Z,50.28
2022-09-15T14:08:19.350Z,49.84
2022-09-15T14:10:50.334Z,49.56
2022-09-15T14:13:21.202Z,49.78
2022-09-15T14:16:19.146Z,50.39
2022-09-15T14:18:46.646Z,50.26
2022-09-15T14:21:25.034Z,49.88
2022-09-15T14:23:57.827Z,50.10
2022-09-15T14:26:30.576Z,50.42
2022-09-15T14:29:02.846Z,50.69
2022-09-15T14:31:37.258Z,51.39
2022-09-15T14:34:08.341Z,52.12
2022-09-15T14:36:35.156Z,53.54
2022-09-15T14:39:27.878Z,53.28
2022-09-15T14:41:54.486Z,53.72
2022-09-15T14:47:27.849Z,52.65
2022-09-15T14:50:24.092Z,53.59
2022-09-15T14:52:54.888Z,52.72
2022-09-15T14:55:42.377Z,53.48
2022-09-15T14:58:30.291Z,55.18
2022-09-15T15:01:15.524Z,55.89
2022-09-15T15:03:57.309Z,54.87
2022-09-15T15:06:59.140Z,55.32
2022-09-15T15:09:44.675Z,54.96
2022-09-15T15:12:26.475Z,55.28
2022-09-15T15:14:55.068Z,54.41
2022-09-15T15:17:30.184Z,54.26
2022-09-15T15:20:18.897Z,55.29
2022-09-15T15:22:46.181Z,54.17
2022-09-15T15:25:32.159Z,55.70
2022-09-15T15:28:00.139Z,56.01
2022-09-15T15:30:35.298Z,56.15
2022-09-15T15:33:19.442Z,56.80
2022-09-15T15:35:46.717Z,56.38
2022-09-15T15:38:18.335Z,56.73
2022-09-15T15:40:45.773Z,56.45
2022-09-15T15:43:26.469Z,55.50
2022-09-15T15:46:00.976Z,55.31
2022-09-15T15:48:32.820Z,53.77
2022-09-15T15:51:04.729Z,54.38
2022-09-15T15:53:31.513Z,54.75
2022-09-15T15:55:59.705Z,54.41
2022-09-15T15:58:26.362Z,54.13
2022-09-15T16:00:56.383Z,54.71
2022-09-15T16:03:24.539Z,53.74
2022-09-15T16:05:59.418Z,53.57
2022-09-15T16:08:39.701Z,53.30
2022-09-15T16:11:09.813Z,53.20
2022-09-15T16:13:36.328Z,53.39
2022-09-15T16:16:13.895Z,53.85
2022-09-15T16:18:40.555Z,53.88
2022-09-15T16:21:07.076Z,54.50
2022-09-15T16:23:33.762Z,54.56
2022-09-15T16:26:05.540Z,54.85
2022-09-15T16:28:32.103Z,54.95
2022-09-15T16:30:59.398Z,54.64
2022-09-15T16:33:26.599Z,55.19
2022-09-15T16:35:55.808Z,55.58
2022-09-15T16:38:25.693Z,55.30
2022-09-15T16:40:52.652Z,55.54
2022-09-15T16:43:22.515Z,55.70
2022-09-15T16:45:49.891Z,55.98
2022-09-15T16:48:17.168Z,56.06
2022-09-15T16:50:55.821Z,55.81
2022-09-15T16:53:31.500Z,56.06
2022-09-15T16:55:58.030Z,56.35
2022-09-15T16:58:24.527Z,57.28
2022-09-15T17:00:52.533Z,56.52
2022-09-15T17:03:21.859Z,57.46
2022-09-15T17:05:53.311Z,57.45
2022-09-15T17:08:22.309Z,57.49
2022-09-15T17:10:49.846Z,59.03
2022-09-15T17:13:21.659Z,59.33
2022-09-15T17:15:50.892Z,59.75
2022-09-15T17:18:17.426Z,58.84
2022-09-15T17:20:47.005Z,59.65
2022-09-15T17:23:23.570Z,59.28
2022-09-15T17:25:59.020Z,60.96
2022-09-15T17:28:28.802Z,60.83
2022-09-15T17:31:05.961Z,61.64
2022-09-15T17:33:33.252Z,61.46
2022-09-15T17:36:00.353Z,60.39
2022-09-15T17:38:27.159Z,59.92
2022-09-15T17:40:55.288Z,59.98
2022-09-15T17:43:25.178Z,60.63
2022-09-15T17:45:52.524Z,60.29
2022-09-15T17:48:19.704Z,63.27
2022-09-15T17:50:48.819Z,60.44
2022-09-15T17:53:17.079Z,61.30
2022-09-15T17:55:43.688Z,65.31
2022-09-15T17:58:10.483Z,62.79
2022-09-15T18:00:39.315Z,62.32
2022-09-15T18:03:17.351Z,62.72
2022-09-15T18:05:43.865Z,63.57
2022-09-15T18:08:10.408Z,63.33
2022-09-15T18:10:37.527Z,62.71
2022-09-15T18:13:06.301Z,63.79
2022-09-15T18:15:34.794Z,63.82
2022-09-15T18:18:04.186Z,64.84
2022-09-15T18:20:32.736Z,64.79
2022-09-15T18:23:00.113Z,63.72
2022-09-15T18:25:36.823Z,65.09
2022-09-15T18:28:04.027Z,65.18
2022-09-15T18:30:33.681Z,66.80
2022-09-15T18:33:00.335Z,66.75
2022-09-15T18:35:26.900Z,66.52
2022-09-15T18:37:59.395Z,63.93
2022-09-15T18:40:27.507Z,66.91
2022-09-15T18:42:54.224Z,65.47
2022-09-15T18:45:21.773Z,64.26
2022-09-15T18:47:50.304Z,64.84
2022-09-15T18:50:18.960Z,65.37
2022-09-15T18:52:45.832Z,65.23
2022-09-15T18:55:22.671Z,68.01
2022-09-15T18:57:49.546Z,65.51
2022-09-15T19:00:19.674Z,69.70
2022-09-15T19:02:46.498Z,67.58
2022-09-15T19:05:15.613Z,70.27
2022-09-15T19:07:43.506Z,70.81
2022-09-15T19:10:11.593Z,69.06
2022-09-15T19:12:38.854Z,72.02
2022-09-15T19:15:10.785Z,71.43
2022-09-15T19:17:38.724Z,72.15
2022-09-15T19:20:07.458Z,71.29
2022-09-15T19:22:34.627Z,70.26
2022-09-15T19:25:01.400Z,71.65
2022-09-15T19:27:28.031Z,70.09
2022-09-15T19:29:54.693Z,70.97
2022-09-15T19:32:23.439Z,71.25
2022-09-15T19:34:50.035Z,70.39
2022-09-15T19:37:19.082Z,71.79
2022-09-15T19:39:46.872Z,74.08
2022-09-15T19:42:16.905Z,73.04
2022-09-15T19:44:43.673Z,73.43
2022-09-15T19:47:10.502Z,76.80
2022-09-15T19:49:37.144Z,78.19
2022-09-15T19:52:05.298Z,77.82
2022-09-15T19:54:32.168Z,79.26
2022-09-15T19:56:58.730Z,75.54
2022-09-15T19:59:30.202Z,78.24
2022-09-15T20:01:58.069Z,81.47
2022-09-15T20:04:24.819Z,80.82
2022-09-15T20:06:51.821Z,81.03
2022-09-15T20:09:18.765Z,79.61
2022-09-15T20:11:45.499Z,81.36
2022-09-15T20:14:12.011Z,80.67
2022-09-15T20:16:38.540Z,81.64
2022-09-15T20:19:05.672Z,79.79
2022-09-15T20:21:51.613Z,81.38
2022-09-15T20:24:19.044Z,80.64
2022-09-15T20:26:45.575Z,81.52
2022-09-15T20:29:13.113Z,82.69
2022-09-15T20:31:40.031Z,81.46
2022-09-15T20:34:06.578Z,81.59
2022-09-15T20:36:36.433Z,80.53
2022-09-15T20:39:04.572Z,79.64
2022-09-15T20:41:34.409Z,81.51
2022-09-15T20:44:01.070Z,80.13
2022-09-15T20:46:29.322Z,78.33
2022-09-15T20:48:55.868Z,80.06
2022-09-15T20:51:25.474Z,79.42
2022-09-15T20:53:54.290Z,80.73
2022-09-15T20:56:24.873Z,83.58
2022-09-15T20:58:56.560Z,83.78
2022-09-15T21:01:32.921Z,83.10
2022-09-15T21:03:59.483Z,82.00
2022-09-15T21:06:27.986Z,82.62
2022-09-15T21:08:55.579Z,84.86
2022-09-15T21:11:23.936Z,81.43
2022-09-15T21:13:50.798Z,82.82
2022-09-15T21:16:21.906Z,82.24
2022-09-15T21:18:49.186Z,82.84
2022-09-15T21:21:21.949Z,83.34
2022-09-15T21:24:03.416Z,83.26
2022-09-15T21:26:32.593Z,82.16
2022-09-15T21:28:59.163Z,83.56
2022-09-15T21:31:28.438Z,84.62
2022-09-15T21:33:55.580Z,83.18
2022-09-15T21:36:30.655Z,85.82
2022-09-15T21:38:59.028Z,86.23
2022-09-15T21:41:28.052Z,86.42
2022-09-15T21:43:55.276Z,85.96
2022-09-15T21:46:27.429Z,84.94
2022-09-15T21:48:55.957Z,86.96
2022-09-15T21:51:25.041Z,87.88
2022-09-15T21:53:56.265Z,86.85
2022-09-15T21:56:23.599Z,84.15
2022-09-15T21:58:50.091Z,85.27
2022-09-15T22:01:22.725Z,82.63
2022-09-15T22:04:10.311Z,84.32
2022-09-15T22:06:40.427Z,86.42
2022-09-15T22:09:14.431Z,85.72
2022-09-15T22:11:41.238Z,86.90
2022-09-15T22:14:08.696Z,86.54
2022-09-15T22:16:37.340Z,85.71
2022-09-15T22:19:05.356Z,86.71
2022-09-15T22:21:32.604Z,85.09
2022-09-15T22:23:59.524Z,83.97
2022-09-15T22:26:28.206Z,86.79
2022-09-15T22:28:56.054Z,87.71
2022-09-15T22:31:24.149Z,86.56
2022-09-15T22:33:50.885Z,85.60
2022-09-15T22:36:28.603Z,84.09
2022-09-15T22:39:02.771Z,86.39
2022-09-15T22:41:29.713Z,85.87
2022-09-15T22:43:56.405Z,84.73
2022-09-15T22:46:23.053Z,82.80
2022-09-15T22:48:49.625Z,82.93
2022-09-15T22:51:16.465Z,83.90
2022-09-15T22:53:43.048Z,82.80
2022-09-15T22:56:20.651Z,83.68
2022-09-15T22:58:48.497Z,83.37
2022-09-15T23:01:17.749Z,83.01
2022-09-15T23:03:47.451Z,82.24
2022-09-15T23:06:14.419Z,79.92
2022-09-15T23:08:41.181Z,77.81
2022-09-15T23:11:10.853Z,76.66
2022-09-15T23:13:38.068Z,76.57
2022-09-15T23:16:05.768Z,77.04
2022-09-15T23:18:33.262Z,77.93
2022-09-15T23:21:02.812Z,77.94
2022-09-15T23:23:30.227Z,78.50
2022-09-15T23:25:56.779Z,78.20
2022-09-15T23:28:24.491Z,80.12
2022-09-15T23:30:53.065Z,81.22
2022-09-15T23:33:19.773Z,81.51
2022-09-15T23:35:47.034Z,80.77
2022-09-15T23:38:13.969Z,80.98
2022-09-15T23:40:42.578Z,81.33
2022-09-15T23:43:13.817Z,80.73
2022-09-15T23:45:40.502Z,81.96
2022-09-15T23:48:08.296Z,80.92
2022-09-15T23:50:35.841Z,82.68
2022-09-15T23:53:02.595Z,82.87
2022-09-15T23:55:29.142Z,82.41
2022-09-15T23:57:56.094Z,82.57
